sensor_id;sensor_type;location;lat;lon;timestamp;pressure;altitude;pressure_sealevel;temperature;humidity
75026;BME280;63591;50.080;8.286;2022-12-10T00:00:13;98677.19;;;12.53;47.42
75026;BME280;63591;50.080;8.286;2022-12-10T00:02:39;98682.28;;;12.54;47.50
75026;BME280;63591;50.080;8.286;2022-12-10T00:05:05;98681.44;;;12.54;47.32
75026;BME280;63591;50.080;8.286;2022-12-10T00:07:30;98689.34;;;12.54;47.20
75026;BME280;63591;50.080;8.286;2022-12-10T00:09:55;98687.53;;;12.54;47.38
75026;BME280;63591;50.080;8.286;2022-12-10T00:12:20;98698.06;;;12.54;47.38
75026;BME280;63591;50.080;8.286;2022-12-10T00:14:46;98692.81;;;12.54;47.25
75026;BME280;63591;50.080;8.286;2022-12-10T00:17:11;98696.25;;;12.55;47.27
75026;BME280;63591;50.080;8.286;2022-12-10T00:19:36;98693.63;;;12.55;47.37
75026;BME280;63591;50.080;8.286;2022-12-10T00:22:02;98696.25;;;12.55;47.31
75026;BME280;63591;50.080;8.286;2022-12-10T00:24:27;98699.69;;;12.55;47.44
75026;BME280;63591;50.080;8.286;2022-12-10T00:26:52;98696.25;;;12.55;47.53
75026;BME280;63591;50.080;8.286;2022-12-10T00:29:17;98692.63;;;12.56;47.53
75026;BME280;63591;50.080;8.286;2022-12-10T00:31:43;98691.97;;;12.54;47.58
75026;BME280;63591;50.080;8.286;2022-12-10T00:34:10;98698.06;;;12.54;47.29
75026;BME280;63591;50.080;8.286;2022-12-10T00:36:42;98690.16;;;12.54;47.23
75026;BME280;63591;50.080;8.286;2022-12-10T00:39:08;98694.44;;;12.55;47.45
75026;BME280;63591;50.080;8.286;2022-12-10T00:41:34;98697.88;;;12.56;47.45
75026;BME280;63591;50.080;8.286;2022-12-10T00:43:59;98694.44;;;12.55;47.61
75026;BME280;63591;50.080;8.286;2022-12-10T00:46:25;98696.06;;;12.56;47.47
75026;BME280;63591;50.080;8.286;2022-12-10T00:48:50;98701.34;;;12.56;47.27
75026;BME280;63591;50.080;8.286;2022-12-10T00:51:18;98687.34;;;12.56;47.39
75026;BME280;63591;50.080;8.286;2022-12-10T00:53:45;98689.81;;;12.57;47.50
75026;BME280;63591;50.080;8.286;2022-12-10T00:56:13;98687.19;;;12.57;47.54
75026;BME280;63591;50.080;8.286;2022-12-10T00:58:39;98681.09;;;12.57;47.35
75026;BME280;63591;50.080;8.286;2022-12-10T01:01:17;98691.63;;;12.57;47.26
75026;BME280;63591;50.080;8.286;2022-12-10T01:03:44;98687.19;;;12.57;47.54
75026;BME280;63591;50.080;8.286;2022-12-10T01:06:51;98691.78;;;12.55;47.37
75026;BME280;63591;50.080;8.286;2022-12-10T01:09:11;98694.06;;;12.58;47.43
75026;BME280;63591;50.080;8.286;2022-12-10T01:11:40;98697.69;;;12.57;47.30
75026;BME280;63591;50.080;8.286;2022-12-10T01:14:07;98697.69;;;12.57;47.45
75026;BME280;63591;50.080;8.286;2022-12-10T01:16:33;98702.97;;;12.57;47.33
75026;BME280;63591;50.080;8.286;2022-12-10T01:18:59;98699.31;;;12.58;47.38
75026;BME280;63591;50.080;8.286;2022-12-10T01:21:26;98703.78;;;12.58;47.22
75026;BME280;63591;50.080;8.286;2022-12-10T01:23:52;98705.59;;;12.57;47.34
75026;BME280;63591;50.080;8.286;2022-12-10T01:26:20;98702.97;;;12.57;47.45
75026;BME280;63591;50.080;8.286;2022-12-10T01:28:46;98709.66;;;12.60;47.49
75026;BME280;63591;50.080;8.286;2022-12-10T01:31:18;98710.69;;;12.59;47.48
75026;BME280;63591;50.080;8.286;2022-12-10T01:33:44;98715.75;;;12.60;47.60
75026;BME280;63591;50.080;8.286;2022-12-10T01:36:14;98721.03;;;12.60;47.45
75026;BME280;63591;50.080;8.286;2022-12-10T01:38:39;98726.28;;;12.60;47.45
75026;BME280;63591;50.080;8.286;2022-12-10T01:41:06;98729.72;;;12.61;47.66
75026;BME280;63591;50.080;8.286;2022-12-10T01:43:56;98731.91;;;12.57;47.30
75026;BME280;63591;50.080;8.286;2022-12-10T01:46:24;98734.97;;;12.61;47.58
75026;BME280;63591;50.080;8.286;2022-12-10T01:48:50;98734.97;;;12.61;47.34
75026;BME280;63591;50.080;8.286;2022-12-10T01:51:16;98739.47;;;12.60;47.29
75026;BME280;63591;50.080;8.286;2022-12-10T01:53:42;98742.28;;;12.59;47.75
75026;BME280;63591;50.080;8.286;2022-12-10T01:56:10;98745.91;;;12.58;47.31
75026;BME280;63591;50.080;8.286;2022-12-10T01:58:36;98753.63;;;12.59;47.51
75026;BME280;63591;50.080;8.286;2022-12-10T02:01:14;98755.63;;;12.57;47.29
75026;BME280;63591;50.080;8.286;2022-12-10T02:06:37;98747.53;;;12.59;47.21
75026;BME280;63591;50.080;8.286;2022-12-10T02:11:40;98744.06;;;12.58;47.37
75026;BME280;63591;50.080;8.286;2022-12-10T02:14:15;98745.91;;;12.58;47.37
75026;BME280;63591;50.080;8.286;2022-12-10T02:16:49;98744.06;;;12.58;47.28
75026;BME280;63591;50.080;8.286;2022-12-10T02:22:00;98740.66;;;12.58;47.25
75026;BME280;63591;50.080;8.286;2022-12-10T02:24:30;98743.28;;;12.58;47.19
75026;BME280;63591;50.080;8.286;2022-12-10T02:27:09;98740.81;;;12.56;47.12
75026;BME280;63591;50.080;8.286;2022-12-10T02:29:37;98738.00;;;12.58;47.13
75026;BME280;63591;50.080;8.286;2022-12-10T02:32:08;98733.72;;;12.57;47.31
75026;BME280;63591;50.080;8.286;2022-12-10T02:34:40;98733.53;;;12.58;47.24
75026;BME280;63591;50.080;8.286;2022-12-10T02:37:11;98730.13;;;12.58;46.96
75026;BME280;63591;50.080;8.286;2022-12-10T02:39:43;98738.00;;;12.58;47.26
75026;BME280;63591;50.080;8.286;2022-12-10T02:42:12;98731.91;;;12.57;47.12
75026;BME280;63591;50.080;8.286;2022-12-10T02:44:41;98732.94;;;12.56;47.06
75026;BME280;63591;50.080;8.286;2022-12-10T02:47:08;98734.56;;;12.57;46.97
75026;BME280;63591;50.080;8.286;2022-12-10T02:49:34;98733.72;;;12.57;46.80
75026;BME280;63591;50.080;8.286;2022-12-10T02:52:09;98728.81;;;12.54;46.67
75026;BME280;63591;50.080;8.286;2022-12-10T02:54:44;98730.66;;;12.53;46.74
75026;BME280;63591;50.080;8.286;2022-12-10T02:57:36;98740.53;;;12.51;46.78
75026;BME280;63591;50.080;8.286;2022-12-10T03:00:14;98741.38;;;12.51;46.71
75026;BME280;63591;50.080;8.286;2022-12-10T03:03:17;98738.91;;;12.50;46.36
75026;BME280;63591;50.080;8.286;2022-12-10T03:10:53;98742.34;;;12.50;46.49
75026;BME280;63591;50.080;8.286;2022-12-10T03:13:23;98739.72;;;12.50;46.45
75026;BME280;63591;50.080;8.286;2022-12-10T03:15:53;98736.28;;;12.50;46.29
75026;BME280;63591;50.080;8.286;2022-12-10T03:18:22;98729.38;;;12.49;46.47
75026;BME280;63591;50.080;8.286;2022-12-10T03:20:49;98731.03;;;12.50;46.23
75026;BME280;63591;50.080;8.286;2022-12-10T03:23:18;98732.00;;;12.49;46.20
75026;BME280;63591;50.080;8.286;2022-12-10T03:25:46;98728.56;;;12.48;46.14
75026;BME280;63591;50.080;8.286;2022-12-10T03:28:12;98727.75;;;12.48;46.25
75026;BME280;63591;50.080;8.286;2022-12-10T03:30:39;98732.00;;;12.49;46.17
75026;BME280;63591;50.080;8.286;2022-12-10T03:33:05;98728.75;;;12.47;45.94
75026;BME280;63591;50.080;8.286;2022-12-10T03:35:31;98730.56;;;12.46;45.91
75026;BME280;63591;50.080;8.286;2022-12-10T03:37:57;98731.56;;;12.45;45.95
75026;BME280;63591;50.080;8.286;2022-12-10T03:40:24;98727.13;;;12.46;46.08
75026;BME280;63591;50.080;8.286;2022-12-10T03:42:49;98735.03;;;12.46;46.03
75026;BME280;63591;50.080;8.286;2022-12-10T03:45:15;98734.03;;;12.47;45.95
75026;BME280;63591;50.080;8.286;2022-12-10T03:47:41;98741.09;;;12.46;45.99
75026;BME280;63591;50.080;8.286;2022-12-10T03:50:07;98737.66;;;12.46;45.89
75026;BME280;63591;50.080;8.286;2022-12-10T03:52:32;98731.56;;;12.45;45.85
75026;BME280;63591;50.080;8.286;2022-12-10T03:54:58;98736.00;;;12.45;45.94
75026;BME280;63591;50.080;8.286;2022-12-10T03:57:23;98748.38;;;12.44;45.81
75026;BME280;63591;50.080;8.286;2022-12-10T03:59:48;98744.91;;;12.44;45.64
75026;BME280;63591;50.080;8.286;2022-12-10T04:02:14;98739.66;;;12.44;45.76
75026;BME280;63591;50.080;8.286;2022-12-10T04:04:39;98747.53;;;12.44;45.70
75026;BME280;63591;50.080;8.286;2022-12-10T04:07:04;98751.00;;;12.44;45.56
75026;BME280;63591;50.080;8.286;2022-12-10T04:09:30;98750.19;;;12.44;45.71
75026;BME280;63591;50.080;8.286;2022-12-10T04:11:57;98752.81;;;12.44;45.78
75026;BME280;63591;50.080;8.286;2022-12-10T04:14:22;98754.63;;;12.43;45.33
75026;BME280;63591;50.080;8.286;2022-12-10T04:17:06;98744.09;;;12.43;45.59
75026;BME280;63591;50.080;8.286;2022-12-10T04:19:32;98747.72;;;12.42;45.44
75026;BME280;63591;50.080;8.286;2022-12-10T04:21:57;98753.81;;;12.43;45.51
75026;BME280;63591;50.080;8.286;2022-12-10T04:24:41;98757.44;;;12.42;45.49
75026;BME280;63591;50.080;8.286;2022-12-10T04:27:30;98760.06;;;12.42;45.26
75026;BME280;63591;50.080;8.286;2022-12-10T04:29:57;98752.16;;;12.42;45.50
75026;BME280;63591;50.080;8.286;2022-12-10T04:32:25;98759.09;;;12.43;45.31
75026;BME280;63591;50.080;8.286;2022-12-10T04:34:51;98752.16;;;12.42;45.33
75026;BME280;63591;50.080;8.286;2022-12-10T04:37:17;98750.53;;;12.41;45.34
75026;BME280;63591;50.080;8.286;2022-12-10T04:39:43;98754.19;;;12.40;45.20
75026;BME280;63591;50.080;8.286;2022-12-10T04:42:08;98749.72;;;12.40;45.54
75026;BME280;63591;50.080;8.286;2022-12-10T04:44:34;98754.19;;;12.40;45.46
75026;BME280;63591;50.080;8.286;2022-12-10T04:47:00;98762.88;;;12.40;45.12
75026;BME280;63591;50.080;8.286;2022-12-10T04:49:25;98754.97;;;12.40;45.25
75026;BME280;63591;50.080;8.286;2022-12-10T04:51:51;98756.63;;;12.41;45.16
75026;BME280;63591;50.080;8.286;2022-12-10T04:54:18;98748.72;;;12.41;45.31
75026;BME280;63591;50.080;8.286;2022-12-10T04:56:44;98745.28;;;12.41;45.26
75026;BME280;63591;50.080;8.286;2022-12-10T04:59:10;98750.34;;;12.42;45.23
75026;BME280;63591;50.080;8.286;2022-12-10T05:01:36;98744.25;;;12.42;45.22
75026;BME280;63591;50.080;8.286;2022-12-10T05:04:05;98754.63;;;12.43;45.25
75026;BME280;63591;50.080;8.286;2022-12-10T05:06:31;98748.56;;;12.43;45.40
75026;BME280;63591;50.080;8.286;2022-12-10T05:08:57;98764.34;;;12.43;45.29
75026;BME280;63591;50.080;8.286;2022-12-10T05:11:24;98763.50;;;12.42;45.19
75026;BME280;63591;50.080;8.286;2022-12-10T05:13:52;98763.50;;;12.42;44.98
75026;BME280;63591;50.080;8.286;2022-12-10T05:16:19;98768.78;;;12.42;45.16
75026;BME280;63591;50.080;8.286;2022-12-10T05:18:45;98778.31;;;12.43;45.24
75026;BME280;63591;50.080;8.286;2022-12-10T05:21:13;98771.41;;;12.42;45.07
75026;BME280;63591;50.080;8.286;2022-12-10T05:23:42;98774.03;;;12.42;45.00
75026;BME280;63591;50.080;8.286;2022-12-10T05:26:20;98769.78;;;12.41;44.99
75026;BME280;63591;50.080;8.286;2022-12-10T05:28:52;98778.47;;;12.42;44.95
75026;BME280;63591;50.080;8.286;2022-12-10T05:31:23;98778.47;;;12.42;45.00
75026;BME280;63591;50.080;8.286;2022-12-10T05:33:49;98775.06;;;12.41;45.13
75026;BME280;63591;50.080;8.286;2022-12-10T05:36:17;98778.47;;;12.42;45.07
75026;BME280;63591;50.080;8.286;2022-12-10T05:38:43;98785.41;;;12.43;45.17
75026;BME280;63591;50.080;8.286;2022-12-10T05:41:12;98780.13;;;12.43;45.00
75026;BME280;63591;50.080;8.286;2022-12-10T05:43:37;98791.47;;;12.43;44.94
75026;BME280;63591;50.080;8.286;2022-12-10T05:46:05;98786.38;;;12.42;45.04
75026;BME280;63591;50.080;8.286;2022-12-10T05:48:32;98795.94;;;12.43;45.13
75026;BME280;63591;50.080;8.286;2022-12-10T05:50:57;98795.09;;;12.42;44.86
75026;BME280;63591;50.080;8.286;2022-12-10T05:53:23;98796.91;;;12.42;44.90
75026;BME280;63591;50.080;8.286;2022-12-10T05:55:48;98796.91;;;12.42;44.95
75026;BME280;63591;50.080;8.286;2022-12-10T05:58:14;98798.72;;;12.41;44.86
75026;BME280;63591;50.080;8.286;2022-12-10T06:00:39;98799.72;;;12.40;44.86
75026;BME280;63591;50.080;8.286;2022-12-10T06:03:05;98799.53;;;12.42;44.82
75026;BME280;63591;50.080;8.286;2022-12-10T06:05:39;98804.78;;;12.42;44.78
75026;BME280;63591;50.080;8.286;2022-12-10T06:08:05;98797.72;;;12.42;45.05
75026;BME280;63591;50.080;8.286;2022-12-10T06:10:34;98795.94;;;12.43;44.94
75026;BME280;63591;50.080;8.286;2022-12-10T06:12:59;98802.16;;;12.42;44.98
75026;BME280;63591;50.080;8.286;2022-12-10T06:15:24;98801.38;;;12.41;44.79
75026;BME280;63591;50.080;8.286;2022-12-10T06:17:49;98799.72;;;12.40;44.93
75026;BME280;63591;50.080;8.286;2022-12-10T06:20:15;98801.53;;;12.40;44.84
75026;BME280;63591;50.080;8.286;2022-12-10T06:22:40;98793.66;;;12.40;44.91
75026;BME280;63591;50.080;8.286;2022-12-10T06:25:06;98799.09;;;12.38;44.70
75026;BME280;63591;50.080;8.286;2022-12-10T06:27:31;98798.09;;;12.39;44.87
75026;BME280;63591;50.080;8.286;2022-12-10T06:29:57;98802.53;;;12.38;44.60
75026;BME280;63591;50.080;8.286;2022-12-10T06:32:22;98805.16;;;12.38;44.71
75026;BME280;63591;50.080;8.286;2022-12-10T06:34:47;98801.91;;;12.36;44.50
75026;BME280;63591;50.080;8.286;2022-12-10T06:37:13;98803.72;;;12.36;44.67
75026;BME280;63591;50.080;8.286;2022-12-10T06:39:38;98807.97;;;12.37;44.67
75026;BME280;63591;50.080;8.286;2022-12-10T06:42:04;98808.78;;;12.37;44.48
75026;BME280;63591;50.080;8.286;2022-12-10T06:44:30;98814.88;;;12.38;44.12
75026;BME280;63591;50.080;8.286;2022-12-10T06:46:56;98809.81;;;12.36;44.49
75026;BME280;63591;50.080;8.286;2022-12-10T06:49:21;98817.69;;;12.36;44.41
75026;BME280;63591;50.080;8.286;2022-12-10T06:51:47;98826.59;;;12.35;44.53
75026;BME280;63591;50.080;8.286;2022-12-10T06:54:12;98833.47;;;12.36;44.46
75026;BME280;63591;50.080;8.286;2022-12-10T06:56:37;98831.03;;;12.35;44.40
75026;BME280;63591;50.080;8.286;2022-12-10T06:59:06;98827.56;;;12.34;44.53
75026;BME280;63591;50.080;8.286;2022-12-10T07:01:32;98834.50;;;12.35;44.42
75026;BME280;63591;50.080;8.286;2022-12-10T07:03:57;98834.28;;;12.37;44.69
75026;BME280;63591;50.080;8.286;2022-12-10T07:06:24;98837.75;;;12.37;44.59
75026;BME280;63591;50.080;8.286;2022-12-10T07:08:50;98841.38;;;12.36;44.61
75026;BME280;63591;50.080;8.286;2022-12-10T07:11:19;98843.19;;;12.36;44.50
75026;BME280;63591;50.080;8.286;2022-12-10T07:13:46;98843.00;;;12.37;44.53
75026;BME280;63591;50.080;8.286;2022-12-10T07:16:27;98840.56;;;12.36;44.57
75026;BME280;63591;50.080;8.286;2022-12-10T07:18:54;98842.00;;;12.38;44.68
75026;BME280;63591;50.080;8.286;2022-12-10T07:21:25;98852.53;;;12.38;44.79
75026;BME280;63591;50.080;8.286;2022-12-10T07:23:52;98853.34;;;12.39;44.81
75026;BME280;63591;50.080;8.286;2022-12-10T07:26:23;98857.78;;;12.38;44.89
75026;BME280;63591;50.080;8.286;2022-12-10T07:28:49;98856.16;;;12.37;44.61
75026;BME280;63591;50.080;8.286;2022-12-10T07:31:14;98858.78;;;12.37;44.63
75026;BME280;63591;50.080;8.286;2022-12-10T07:33:39;98863.22;;;12.37;44.87
75026;BME280;63591;50.080;8.286;2022-12-10T07:36:10;98866.88;;;12.36;44.70
75026;BME280;63591;50.080;8.286;2022-12-10T07:38:37;98870.31;;;12.36;44.60
75026;BME280;63591;50.080;8.286;2022-12-10T07:41:07;98874.13;;;12.34;44.73
75026;BME280;63591;50.080;8.286;2022-12-10T07:43:35;98876.94;;;12.32;44.66
75026;BME280;63591;50.080;8.286;2022-12-10T07:46:10;98869.41;;;12.29;44.60
75026;BME280;63591;50.080;8.286;2022-12-10T07:48:37;98872.47;;;12.33;44.96
75026;BME280;63591;50.080;8.286;2022-12-10T07:51:03;98868.69;;;12.35;45.02
75026;BME280;63591;50.080;8.286;2022-12-10T07:53:29;98872.78;;;12.38;45.23
75026;BME280;63591;50.080;8.286;2022-12-10T07:55:54;98874.22;;;12.41;45.59
75026;BME280;63591;50.080;8.286;2022-12-10T07:58:20;98878.31;;;12.43;45.78
75026;BME280;63591;50.080;8.286;2022-12-10T08:00:45;98868.25;;;12.47;46.17
75026;BME280;63591;50.080;8.286;2022-12-10T08:03:10;98876.75;;;12.49;46.33
75026;BME280;63591;50.080;8.286;2022-12-10T08:05:36;98885.13;;;12.53;46.30
75026;BME280;63591;50.080;8.286;2022-12-10T08:08:01;98871.78;;;12.54;46.47
75026;BME280;63591;50.080;8.286;2022-12-10T08:10:27;98877.53;;;12.58;46.58
75026;BME280;63591;50.080;8.286;2022-12-10T08:12:52;98884.59;;;12.57;46.72
75026;BME280;63591;50.080;8.286;2022-12-10T08:15:17;98885.25;;;12.59;46.51
75026;BME280;63591;50.080;8.286;2022-12-10T08:17:43;98891.97;;;12.62;46.79
75026;BME280;63591;50.080;8.286;2022-12-10T08:20:08;98893.75;;;12.61;47.08
75026;BME280;63591;50.080;8.286;2022-12-10T08:22:34;98897.22;;;12.62;46.97
75026;BME280;63591;50.080;8.286;2022-12-10T08:25:00;98900.66;;;12.62;47.25
75026;BME280;63591;50.080;8.286;2022-12-10T08:27:26;98891.78;;;12.63;46.92
75026;BME280;63591;50.080;8.286;2022-12-10T08:29:51;98897.06;;;12.63;47.33
75026;BME280;63591;50.080;8.286;2022-12-10T08:32:16;98898.69;;;12.64;47.25
75026;BME280;63591;50.080;8.286;2022-12-10T08:34:41;98898.69;;;12.64;47.38
75026;BME280;63591;50.080;8.286;2022-12-10T08:37:07;98901.13;;;12.66;47.36
75026;BME280;63591;50.080;8.286;2022-12-10T08:39:32;98910.66;;;12.67;47.23
75026;BME280;63591;50.080;8.286;2022-12-10T08:41:58;98908.19;;;12.66;47.28
75026;BME280;63591;50.080;8.286;2022-12-10T08:44:23;98917.09;;;12.64;47.49
75026;BME280;63591;50.080;8.286;2022-12-10T08:46:49;98915.91;;;12.67;47.90
75026;BME280;63591;50.080;8.286;2022-12-10T08:49:14;98920.38;;;12.67;47.64
75026;BME280;63591;50.080;8.286;2022-12-10T08:51:39;98925.66;;;12.67;47.56
75026;BME280;63591;50.080;8.286;2022-12-10T08:54:05;98921.19;;;12.67;47.78
75026;BME280;63591;50.080;8.286;2022-12-10T08:56:30;98929.91;;;12.68;47.75
75026;BME280;63591;50.080;8.286;2022-12-10T08:58:56;98932.38;;;12.69;47.84
75026;BME280;63591;50.080;8.286;2022-12-10T09:01:21;98932.53;;;12.68;47.74
75026;BME280;63591;50.080;8.286;2022-12-10T09:03:47;98938.47;;;12.70;47.74
75026;BME280;63591;50.080;8.286;2022-12-10T09:06:16;98940.25;;;12.69;47.63
75026;BME280;63591;50.080;8.286;2022-12-10T09:08:42;98937.81;;;12.68;47.86
75026;BME280;63591;50.080;8.286;2022-12-10T09:11:11;98941.28;;;12.68;47.77
75026;BME280;63591;50.080;8.286;2022-12-10T09:13:37;98949.16;;;12.68;48.36
75026;BME280;63591;50.080;8.286;2022-12-10T09:16:02;98953.06;;;12.72;48.43
75026;BME280;63591;50.080;8.286;2022-12-10T09:18:28;98956.16;;;12.76;49.51
75026;BME280;63591;50.080;8.286;2022-12-10T09:20:53;98957.63;;;12.79;48.99
75026;BME280;63591;50.080;8.286;2022-12-10T09:23:19;98952.38;;;12.79;49.12
75026;BME280;63591;50.080;8.286;2022-12-10T09:25:44;98950.72;;;12.77;49.05
75026;BME280;63591;50.080;8.286;2022-12-10T09:28:09;98956.81;;;12.78;49.00
75026;BME280;63591;50.080;8.286;2022-12-10T09:30:34;98958.59;;;12.77;49.32
75026;BME280;63591;50.080;8.286;2022-12-10T09:33:00;98948.91;;;12.78;49.18
75026;BME280;63591;50.080;8.286;2022-12-10T09:35:25;98953.16;;;12.79;49.03
75026;BME280;63591;50.080;8.286;2022-12-10T09:37:51;98950.72;;;12.77;49.07
75026;BME280;63591;50.080;8.286;2022-12-10T09:40:18;98958.59;;;12.77;48.87
75026;BME280;63591;50.080;8.286;2022-12-10T09:42:58;98953.88;;;12.73;48.62
75026;BME280;63591;50.080;8.286;2022-12-10T09:48:32;98950.63;;;12.71;48.31
75026;BME280;63591;50.080;8.286;2022-12-10T09:51:12;98944.53;;;12.70;48.41
75026;BME280;63591;50.080;8.286;2022-12-10T09:53:39;98946.97;;;12.72;48.31
75026;BME280;63591;50.080;8.286;2022-12-10T09:56:06;98945.34;;;12.71;48.39
75026;BME280;63591;50.080;8.286;2022-12-10T09:58:37;98940.09;;;12.71;51.23
75026;BME280;63591;50.080;8.286;2022-12-10T10:01:05;98941.34;;;12.75;50.59
75026;BME280;63591;50.080;8.286;2022-12-10T10:03:35;98943.44;;;12.80;50.79
75026;BME280;63591;50.080;8.286;2022-12-10T10:06:02;98943.28;;;12.81;50.82
75026;BME280;63591;50.080;8.286;2022-12-10T10:10:56;98941.00;;;12.93;53.15
75026;BME280;63591;50.080;8.286;2022-12-10T10:13:43;98946.28;;;12.93;51.74
75026;BME280;63591;50.080;8.286;2022-12-10T10:16:18;98953.34;;;12.93;51.13
75026;BME280;63591;50.080;8.286;2022-12-10T10:19:04;98951.00;;;12.83;50.57
75026;BME280;63591;50.080;8.286;2022-12-10T10:21:42;98949.06;;;12.76;49.74
75026;BME280;63591;50.080;8.286;2022-12-10T10:24:13;98955.53;;;12.74;50.15
75026;BME280;63591;50.080;8.286;2022-12-10T10:26:40;98952.91;;;12.74;51.23
75026;BME280;63591;50.080;8.286;2022-12-10T10:29:08;98956.50;;;12.73;50.58
75026;BME280;63591;50.080;8.286;2022-12-10T10:31:38;98959.97;;;12.73;50.20
75026;BME280;63591;50.080;8.286;2022-12-10T10:34:06;98952.44;;;12.70;49.75
75026;BME280;63591;50.080;8.286;2022-12-10T10:36:37;98956.25;;;12.68;49.30
75026;BME280;63591;50.080;8.286;2022-12-10T10:39:31;98955.31;;;12.60;53.91
75026;BME280;63591;50.080;8.286;2022-12-10T10:41:58;98949.69;;;12.63;49.53
75026;BME280;63591;50.080;8.286;2022-12-10T10:44:33;98949.88;;;12.62;49.18
75026;BME280;63591;50.080;8.286;2022-12-10T10:47:00;98948.88;;;12.63;49.03
75026;BME280;63591;50.080;8.286;2022-12-10T10:49:28;98952.50;;;12.62;49.99
75026;BME280;63591;50.080;8.286;2022-12-10T10:52:01;98953.69;;;12.59;48.76
75026;BME280;63591;50.080;8.286;2022-12-10T10:54:33;98941.50;;;12.58;51.26
75026;BME280;63591;50.080;8.286;2022-12-10T10:57:27;98944.78;;;12.60;51.22
75026;BME280;63591;50.080;8.286;2022-12-10T10:59:53;98943.78;;;12.61;53.58
75026;BME280;63591;50.080;8.286;2022-12-10T11:02:24;98941.63;;;12.65;50.81
75026;BME280;63591;50.080;8.286;2022-12-10T11:04:55;98940.78;;;12.64;49.99
75026;BME280;63591;50.080;8.286;2022-12-10T11:07:26;98942.44;;;12.66;49.67
75026;BME280;63591;50.080;8.286;2022-12-10T11:09:57;98928.63;;;12.63;49.20
75026;BME280;63591;50.080;8.286;2022-12-10T11:14:53;98933.78;;;12.57;48.44
75026;BME280;63591;50.080;8.286;2022-12-10T11:17:22;98934.50;;;12.50;48.15
75026;BME280;63591;50.080;8.286;2022-12-10T11:19:59;98928.97;;;12.45;47.48
75026;BME280;63591;50.080;8.286;2022-12-10T11:22:30;98928.13;;;12.45;47.55
75026;BME280;63591;50.080;8.286;2022-12-10T11:24:56;98923.88;;;12.44;47.31
75026;BME280;63591;50.080;8.286;2022-12-10T11:30:12;98927.38;;;12.36;46.54
75026;BME280;63591;50.080;8.286;2022-12-10T11:38:10;98938.78;;;12.28;45.88
75026;BME280;63591;50.080;8.286;2022-12-10T11:40:50;98938.44;;;12.31;46.05
75026;BME280;63591;50.080;8.286;2022-12-10T11:51:27;98931.38;;;12.32;45.71
75026;BME280;63591;50.080;8.286;2022-12-10T11:54:31;98935.00;;;12.31;45.57
75026;BME280;63591;50.080;8.286;2022-12-10T12:06:01;98937.81;;;12.29;45.57
75026;BME280;63591;50.080;8.286;2022-12-10T12:11:28;98944.06;;;12.28;46.08
75026;BME280;63591;50.080;8.286;2022-12-10T12:14:24;98949.97;;;12.30;45.83
75026;BME280;63591;50.080;8.286;2022-12-10T12:19:33;98958.44;;;12.41;45.82
75026;BME280;63591;50.080;8.286;2022-12-10T12:22:07;98958.91;;;12.44;46.00
75026;BME280;63591;50.080;8.286;2022-12-10T12:24:38;98961.00;;;12.49;48.56
75026;BME280;63591;50.080;8.286;2022-12-10T12:27:16;98963.63;;;12.49;47.04
75026;BME280;63591;50.080;8.286;2022-12-10T12:32:26;98968.88;;;12.49;46.80
75026;BME280;63591;50.080;8.286;2022-12-10T12:34:59;98965.47;;;12.48;46.27
75026;BME280;63591;50.080;8.286;2022-12-10T12:37:34;98968.28;;;12.47;46.43
75026;BME280;63591;50.080;8.286;2022-12-10T12:40:11;98959.72;;;12.45;46.12
75026;BME280;63591;50.080;8.286;2022-12-10T12:42:43;98958.09;;;12.44;46.29
75026;BME280;63591;50.080;8.286;2022-12-10T12:45:19;98956.47;;;12.43;46.21
75026;BME280;63591;50.080;8.286;2022-12-10T12:50:44;98967.34;;;12.40;46.10
75026;BME280;63591;50.080;8.286;2022-12-10T12:53:20;98964.97;;;12.45;45.99
75026;BME280;63591;50.080;8.286;2022-12-10T13:04:04;98967.09;;;12.49;45.99
75026;BME280;63591;50.080;8.286;2022-12-10T13:06:33;98965.28;;;12.50;46.02
75026;BME280;63591;50.080;8.286;2022-12-10T13:11:37;98976.63;;;12.50;46.15
75026;BME280;63591;50.080;8.286;2022-12-10T13:19:36;98989.31;;;12.47;46.10
75026;BME280;63591;50.080;8.286;2022-12-10T13:22:10;98986.16;;;12.51;46.09
75026;BME280;63591;50.080;8.286;2022-12-10T13:27:30;98994.06;;;12.51;46.09
75026;BME280;63591;50.080;8.286;2022-12-10T13:42:56;99007.84;;;12.54;46.25
75026;BME280;63591;50.080;8.286;2022-12-10T13:45:41;99015.56;;;12.55;46.30
75026;BME280;63591;50.080;8.286;2022-12-10T13:50:57;99017.56;;;12.53;45.94
75026;BME280;63591;50.080;8.286;2022-12-10T13:59:13;99033.53;;;12.51;46.17
75026;BME280;63591;50.080;8.286;2022-12-10T14:07:29;99034.66;;;12.57;46.11
75026;BME280;63591;50.080;8.286;2022-12-10T14:09:57;99039.09;;;12.57;45.96
75026;BME280;63591;50.080;8.286;2022-12-10T14:12:30;99035.47;;;12.58;46.18
75026;BME280;63591;50.080;8.286;2022-12-10T14:15:05;99044.53;;;12.55;46.08
75026;BME280;63591;50.080;8.286;2022-12-10T14:17:36;99047.16;;;12.55;46.12
75026;BME280;63591;50.080;8.286;2022-12-10T14:20:05;99050.78;;;12.54;46.08
75026;BME280;63591;50.080;8.286;2022-12-10T14:22:34;99054.25;;;12.55;45.88
75026;BME280;63591;50.080;8.286;2022-12-10T14:25:12;99058.03;;;12.52;45.73
75026;BME280;63591;50.080;8.286;2022-12-10T14:27:38;99056.06;;;12.54;46.06
75026;BME280;63591;50.080;8.286;2022-12-10T14:30:06;99055.22;;;12.54;46.10
75026;BME280;63591;50.080;8.286;2022-12-10T14:32:39;99057.69;;;12.55;46.01
75026;BME280;63591;50.080;8.286;2022-12-10T14:35:07;99058.69;;;12.54;46.09
75026;BME280;63591;50.080;8.286;2022-12-10T14:37:37;99063.78;;;12.56;46.08
75026;BME280;63591;50.080;8.286;2022-12-10T14:40:06;99072.69;;;12.55;45.98
75026;BME280;63591;50.080;8.286;2022-12-10T14:42:32;99077.94;;;12.55;45.96
75026;BME280;63591;50.080;8.286;2022-12-10T14:45:03;99086.03;;;12.53;45.85
75026;BME280;63591;50.080;8.286;2022-12-10T14:47:36;99082.56;;;12.53;45.94
75026;BME280;63591;50.080;8.286;2022-12-10T14:50:03;99089.44;;;12.54;45.87
75026;BME280;63591;50.080;8.286;2022-12-10T14:52:38;99095.72;;;12.53;45.84